DAUT

Details ICAO DAUT (TMX)
Name TIMIMOUN
Region Algeria
Timezone Africa/Algiers (UTC+1.0)
Plans Departing 1
Arriving 2
Stats Elevation 1,027 ft / 313 m (AMSL)
Location 29.236667° 0.275973°
Runways 1
Magnetic Variation 0.108° E
Sunrise 2017-12-13 06:45:39 UTC / 2017-12-13 07:45:39 Local
Sunset 2017-12-13 17:03:22 UTC / 2017-12-13 18:03:22 Local
Advertisement - Login to hide

Runways

ID Width Length Bearing (true) Bearing (mag) Surface Threshold Offset Overrun Length
06 148 ft / 45 m 9,881 ft / 3,012 m 56.35° 56.24° Asphalt 0 ft / 0 m 0 ft / 0 m
24 148 ft / 45 m 9,881 ft / 3,012 m 236.37° 236.26° Asphalt 0 ft / 0 m 0 ft / 0 m

Map

Weather


0- 5 10 15 20 25 30 35+ Temperature / ° C

Clouds and Precipitation
Forecast for 2017-12-13 06:00 UTC. Updated 23 minutes ago

Ground ~20,000 ft ~40,000 ft Winds

METAR

DAUT 130100Z 09005KT CAVOK 11/M02 Q1016

TAF

Not found

Frequencies

Tower 119.70 MHz TWR
Warning: Do not use this data for real-world aviation or navigation. No guarantee of current accuracy is given.